Time;durP1;ratioP1;P1;durP2;ratioP2;P2;SDS_P1;SDS_P2;PMS_P1;PMS_P2;Temp;Humidity;BMP_temperature;BMP_pressure;BME280_temperature;BME280_humidity;BME280_pressure;Samples;Min_cycle;Max_cycle;Signal;HPM_P1;HPM_P2
2021/10/28 00:12:21;;;;;;;;;14.67;14.00;;;;;11.17;71.56;101579.50;4970985;28;45336;-74
2021/10/28 00:14:53;;;;;;;;;20.33;16.67;;;;;11.15;72.11;101574.34;4972268;28;45490;-76
2021/10/28 00:17:26;;;;;;;;;12.00;12.00;;;;;11.14;72.40;101572.66;4971618;28;45485;-77
2021/10/28 00:19:52;;;;;;;;;21.33;20.67;;;;;11.12;72.00;101569.28;4971777;28;47165;-72
2021/10/28 00:22:17;;;;;;;;;25.00;21.00;;;;;11.07;71.74;101569.56;4975206;28;45747;-71
2021/10/28 00:24:43;;;;;;;;;24.33;18.67;;;;;11.07;72.52;101561.69;4975535;28;45533;-75
2021/10/28 00:27:09;;;;;;;;;18.33;15.00;;;;;11.07;72.58;101555.59;4971448;28;44842;-76
2021/10/28 00:29:35;;;;;;;;;26.00;22.67;;;;;11.07;72.12;101559.06;4982215;27;47085;-73
2021/10/28 00:32:03;;;;;;;;;21.33;20.00;;;;;11.07;72.29;101556.44;4971578;28;45432;-74
2021/10/28 00:34:28;;;;;;;;;25.00;21.00;;;;;11.07;72.53;101548.53;4971292;28;45273;-72
2021/10/28 00:36:55;;;;;;;;;20.00;20.00;;;;;11.05;72.48;101547.81;4973221;28;45615;-75
2021/10/28 00:39:20;;;;;;;;;26.00;24.33;;;;;11.02;72.35;101534.84;4970469;28;47290;-73
2021/10/28 00:41:46;;;;;;;;;28.33;21.00;;;;;11.02;72.88;101544.53;4971258;28;45497;-72
2021/10/28 00:44:12;;;;;;;;;24.00;19.33;;;;;10.99;72.48;101537.66;4970079;28;45234;-74
2021/10/28 00:46:39;;;;;;;;;16.33;14.33;;;;;10.97;72.72;101534.28;4971519;28;45827;-72
2021/10/28 00:49:08;;;;;;;;;20.33;18.00;;;;;10.94;72.40;101529.22;4972231;28;47237;-76
2021/10/28 00:51:34;;;;;;;;;19.00;17.33;;;;;10.95;72.28;101532.69;4970939;28;45317;-77
2021/10/28 00:54:00;;;;;;;;;24.00;19.33;;;;;10.92;72.17;101527.63;4970290;28;45577;-76
2021/10/28 00:56:28;;;;;;;;;22.00;20.00;;;;;10.91;72.39;101526.81;4970867;28;45455;-72
2021/10/28 00:58:54;;;;;;;;;18.33;16.33;;;;;10.89;72.36;101529.50;4971102;28;45458;-72
2021/10/28 01:01:19;;;;;;;;;18.00;16.67;;;;;10.87;72.85;101520.03;4970960;28;45342;-72
2021/10/28 01:03:45;;;;;;;;;18.33;14.00;;;;;10.86;72.77;101518.38;4973241;28;45574;-75
2021/10/28 01:06:13;;;;;;;;;19.00;17.33;;;;;10.87;72.61;101514.78;4972258;28;46038;-73
2021/10/28 01:08:42;;;;;;;;;22.67;19.67;;;;;10.85;72.44;101517.50;4970618;28;45501;-72
2021/10/28 01:11:09;;;;;;;;;18.33;16.67;;;;;10.83;72.52;101511.53;4959469;28;45526;-72
2021/10/28 01:13:36;;;;;;;;;20.00;17.33;;;;;10.84;72.66;101512.34;4970878;28;45923;-71
2021/10/28 01:16:03;;;;;;;;;18.33;14.00;;;;;10.81;72.73;101510.75;4971970;28;45514;-72
2021/10/28 01:18:29;;;;;;;;;21.33;18.67;;;;;10.79;73.13;101511.78;4970824;28;46254;-71
2021/10/28 01:20:55;;;;;;;;;25.00;18.67;;;;;10.79;72.95;101514.41;4970973;28;45464;-70
2021/10/28 01:23:23;;;;;;;;;20.67;17.00;;;;;10.76;72.65;101506.75;4971404;28;45356;-71
2021/10/28 01:26:05;;;;;;;;;19.67;18.00;;;;;10.75;72.82;101508.50;4971501;28;45697;-72
2021/10/28 01:28:32;;;;;;;;;20.67;17.33;;;;;10.73;72.67;101515.66;4954725;28;45345;-71
2021/10/28 01:31:01;;;;;;;;;20.67;16.00;;;;;10.71;72.72;101505.22;4969245;28;45385;-72
2021/10/28 01:33:27;;;;;;;;;15.67;15.33;;;;;10.72;72.68;101504.28;4969922;28;45660;-74
2021/10/28 01:35:53;;;;;;;;;17.67;14.67;;;;;10.71;73.04;101510.47;4970544;28;45506;-72
2021/10/28 01:38:19;;;;;;;;;24.00;18.67;;;;;10.67;72.96;101501.09;4970744;28;45486;-71
2021/10/28 01:41:00;;;;;;;;;17.67;15.33;;;;;10.66;72.77;101503.81;4969110;28;45432;-72
2021/10/28 01:43:27;;;;;;;;;20.33;18.67;;;;;10.64;72.66;101503.94;4970234;28;45347;-70
2021/10/28 01:45:53;;;;;;;;;19.00;15.67;;;;;10.62;72.63;101497.91;4972171;28;45367;-71
2021/10/28 01:48:20;;;;;;;;;19.67;18.00;;;;;10.61;73.05;101493.59;4970142;28;46091;-75
2021/10/28 01:50:47;;;;;;;;;20.00;16.33;;;;;10.60;72.80;101494.56;4970855;28;45226;-76
2021/10/28 01:53:13;;;;;;;;;17.67;16.00;;;;;10.57;72.72;101499.97;4970744;28;45486;-74
2021/10/28 01:55:39;;;;;;;;;18.00;17.33;;;;;10.53;72.39;101493.22;4971021;28;45447;-72
2021/10/28 01:58:05;;;;;;;;;21.33;18.00;;;;;10.50;72.77;101480.31;4972186;28;46259;-75
2021/10/28 02:00:31;;;;;;;;;16.33;16.00;;;;;10.48;73.06;101484.78;4970648;28;45547;-76
2021/10/28 02:02:56;;;;;;;;;18.67;14.67;;;;;10.46;72.84;101484.06;4970279;28;45519;-71
2021/10/28 02:05:23;;;;;;;;;20.67;16.33;;;;;10.44;73.02;101484.13;4976967;28;45306;-76
2021/10/28 02:07:50;;;;;;;;;17.67;13.67;;;;;10.43;72.89;101471.09;4976044;28;47367;-77
2021/10/28 02:10:16;;;;;;;;;24.33;19.00;;;;;10.43;72.93;101471.09;4974892;28;45457;-74
2021/10/28 02:12:43;;;;;;;;;17.33;15.00;;;;;10.44;73.03;101467.53;4977438;28;45452;-75
2021/10/28 02:15:12;;;;;;;;;15.33;14.33;;;;;10.43;73.09;101468.47;4987178;27;45494;-74
2021/10/28 02:17:38;;;;;;;;;16.67;16.00;;;;;10.43;73.30;101468.47;4968969;28;46039;-75
2021/10/28 02:20:06;;;;;;;;;18.33;14.00;;;;;10.43;73.41;101458.81;4979570;28;45369;-76
2021/10/28 02:22:32;;;;;;;;;19.33;16.33;;;;;10.42;73.21;101462.38;4970387;28;45422;-73
2021/10/28 02:24:57;;;;;;;;;18.33;16.33;;;;;10.42;73.51;101464.16;4973204;28;45285;-76
2021/10/28 02:27:23;;;;;;;;;20.00;15.33;;;;;10.44;73.20;101441.28;4970148;28;45458;-74
2021/10/28 02:29:48;;;;;;;;;15.67;13.33;;;;;10.43;73.14;101436.94;4970330;28;45382;-72
2021/10/28 02:32:15;;;;;;;;;19.33;19.00;;;;;10.44;73.10;101441.28;5018365;27;45469;-70
2021/10/28 02:34:40;;;;;;;;;17.00;16.00;;;;;10.42;72.92;101444.00;4970260;28;45648;-71
2021/10/28 02:37:06;;;;;;;;;24.00;15.33;;;;;10.38;72.87;101426.75;4970822;28;45539;-72
2021/10/28 02:39:32;;;;;;;;;19.67;16.33;;;;;10.40;73.34;101433.59;4970541;28;45453;-69
2021/10/28 02:41:58;;;;;;;;;18.67;17.00;;;;;10.39;72.96;101431.91;4969634;28;45576;-71
2021/10/28 02:44:23;;;;;;;;;14.33;12.00;;;;;10.39;72.71;101429.28;4969763;28;45674;-71
2021/10/28 02:46:49;;;;;;;;;16.67;12.33;;;;;10.38;72.87;101427.59;4971634;28;47149;-70
2021/10/28 02:49:16;;;;;;;;;24.33;18.00;;;;;10.36;73.12;101431.25;4971739;28;45499;-70
2021/10/28 02:51:46;;;;;;;;;16.33;15.33;;;;;10.33;72.76;101434.88;4969622;28;45356;-70
2021/10/28 02:54:11;;;;;;;;;18.33;14.33;;;;;10.29;72.82;101427.25;4970248;28;46973;-70
2021/10/28 02:56:37;;;;;;;;;17.33;16.00;;;;;10.25;72.51;101437.13;4970058;28;45481;-72
2021/10/28 02:59:02;;;;;;;;;18.00;18.00;;;;;10.23;73.14;101426.69;4971022;28;45423;-72
2021/10/28 03:01:27;;;;;;;;;21.67;17.67;;;;;10.22;72.91;101422.41;4971589;28;45361;-72
2021/10/28 03:03:53;;;;;;;;;20.67;20.00;;;;;10.20;73.13;101410.31;4974290;28;45498;-68
2021/10/28 03:06:18;;;;;;;;;16.67;14.67;;;;;10.22;73.32;101416.31;4972405;28;45317;-69
2021/10/28 03:08:44;;;;;;;;;17.67;13.67;;;;;10.21;73.23;101420.72;4970909;28;45259;-67
2021/10/28 03:11:09;;;;;;;;;22.00;17.67;;;;;10.20;73.09;101419.03;4972804;28;45423;-72
2021/10/28 03:13:35;;;;;;;;;16.33;15.00;;;;;10.20;73.29;101419.03;4971175;28;45380;-69
2021/10/28 03:16:12;;;;;;;;;13.00;11.33;;;;;10.21;72.72;101406.72;4973656;28;46663;-71
2021/10/28 03:26:49;;;;;;;;;15.00;14.00;;;;;9.86;72.94;101399.22;5005032;28;45939;-65
2021/10/28 03:29:15;;;;;;;;;15.67;14.67;;;;;9.78;73.56;101399.69;5021508;27;45382;-69
2021/10/28 03:31:40;;;;;;;;;16.33;11.33;;;;;9.67;73.49;101381.97;5010463;28;45300;-68
2021/10/28 03:34:06;;;;;;;;;14.67;11.00;;;;;9.67;73.46;101395.09;5033626;28;45450;-67
2021/10/28 03:42:10;;;;;;;;;15.67;13.00;;;;;9.79;74.04;101382.19;4972351;28;45438;-75
2021/10/28 03:58:07;;;;;;;;;12.67;11.67;;;;;10.18;73.02;101367.56;5024012;28;45362;-76
2021/10/28 04:01:12;;;;;;;;;13.33;13.33;;;;;10.19;73.13;101369.25;5002978;28;46216;-75
2021/10/28 04:16:37;;;;;;;;;16.33;13.00;;;;;10.32;72.44;101375.41;5050200;27;45529;-74
2021/10/28 04:29:32;;;;;;;;;9.00;9.00;;;;;10.42;71.96;101373.09;4979714;28;45423;-73
2021/10/28 04:31:58;;;;;;;;;16.33;15.00;;;;;10.40;71.84;101356.56;4979542;28;45613;-70
2021/10/28 04:34:25;;;;;;;;;17.33;12.67;;;;;10.52;72.32;101365.44;4983862;28;45416;-72
2021/10/28 04:36:50;;;;;;;;;18.00;12.67;;;;;10.55;71.56;101370.53;4984142;28;45403;-72
2021/10/28 04:39:16;;;;;;;;;13.67;9.67;;;;;10.60;71.61;101368.44;4974293;28;46357;-72
2021/10/28 04:41:41;;;;;;;;;14.00;13.00;;;;;10.63;71.31;101365.63;4976258;28;45472;-72
2021/10/28 04:44:11;;;;;;;;;20.33;15.00;;;;;10.64;71.68;101367.31;4979977;28;45949;-71
2021/10/28 04:46:38;;;;;;;;;15.33;11.67;;;;;10.66;71.63;101369.81;4974329;28;45460;-72
2021/10/28 04:49:04;;;;;;;;;14.67;11.33;;;;;10.69;71.46;101369.63;4972490;28;45547;-72
2021/10/28 04:51:29;;;;;;;;;12.00;12.00;;;;;10.72;70.65;101369.44;4972221;28;45305;-72
2021/10/28 04:53:55;;;;;;;;;15.00;12.67;;;;;10.76;70.71;101377.97;4991504;27;45506;-73
2021/10/28 04:56:21;;;;;;;;;12.00;11.00;;;;;10.78;70.40;101370.81;4969477;28;45612;-73
2021/10/28 04:58:46;;;;;;;;;16.00;11.00;;;;;10.80;70.64;101369.78;4969618;28;47328;-72
2021/10/28 05:01:11;;;;;;;;;8.33;6.00;;;;;10.80;70.77;101377.66;4980290;28;45540;-72
2021/10/28 05:03:37;;;;;;;;;16.33;11.33;;;;;10.81;70.55;101374.09;4976061;28;45391;-72
2021/10/28 05:06:02;;;;;;;;;15.67;13.67;;;;;10.81;70.26;101375.88;4971192;28;45572;-71
2021/10/28 05:08:28;;;;;;;;;13.33;11.00;;;;;10.81;70.59;101375.88;4975974;28;47120;-72
2021/10/28 05:10:53;;;;;;;;;20.33;13.33;;;;;10.83;70.49;101379.25;4977660;28;45299;-72
2021/10/28 05:13:19;;;;;;;;;13.00;13.00;;;;;10.83;70.06;101376.63;4972350;28;45542;-71
2021/10/28 05:15:46;;;;;;;;;12.67;11.00;;;;;10.82;70.44;101377.56;4984722;28;45473;-72
2021/10/28 05:18:12;;;;;;;;;19.67;16.33;;;;;10.82;70.48;101378.41;4971820;28;45533;-73
2021/10/28 05:20:39;;;;;;;;;14.33;12.00;;;;;10.82;70.42;101374.94;4969292;28;45378;-71
2021/10/28 05:23:04;;;;;;;;;18.33;15.33;;;;;10.82;70.09;101378.41;4973953;28;45419;-73
2021/10/28 05:25:30;;;;;;;;;17.00;14.00;;;;;10.82;70.45;101367.91;4971975;28;45360;-72
2021/10/28 05:27:55;;;;;;;;;16.00;13.00;;;;;10.82;70.03;101372.28;4979574;28;46164;-72
2021/10/28 05:30:20;;;;;;;;;16.33;15.33;;;;;10.82;69.91;101377.56;4976998;28;45339;-70
2021/10/28 05:32:46;;;;;;;;;12.67;11.00;;;;;10.81;70.33;101375.88;4966863;28;45336;-73
2021/10/28 05:35:11;;;;;;;;;18.67;13.00;;;;;10.80;70.20;101377.66;4960507;28;46309;-71
2021/10/28 05:37:37;;;;;;;;;12.33;12.33;;;;;10.75;69.73;101371.84;4969077;28;45644;-72
2021/10/28 05:40:03;;;;;;;;;12.00;11.33;;;;;10.82;69.89;101380.19;4971261;28;45470;-73
2021/10/28 05:42:29;;;;;;;;;13.00;12.00;;;;;10.80;70.22;101379.47;4969663;28;45284;-71
2021/10/28 05:44:55;;;;;;;;;19.33;13.00;;;;;10.79;69.52;101375.13;4970282;28;45553;-71
2021/10/28 05:47:20;;;;;;;;;14.67;14.67;;;;;10.76;70.06;101370.09;4969979;28;45699;-72
2021/10/28 05:49:46;;;;;;;;;18.00;13.67;;;;;10.78;70.02;101370.81;4967608;28;45517;-71
2021/10/28 05:52:11;;;;;;;;;19.00;12.67;;;;;10.72;70.33;101357.13;4970897;28;45264;-72
2021/10/28 05:54:37;;;;;;;;;16.67;13.00;;;;;10.76;70.02;101370.09;4971470;28;45305;-72
2021/10/28 05:57:03;;;;;;;;;12.67;11.00;;;;;10.75;69.66;101365.78;4969834;28;46032;-72
2021/10/28 05:59:28;;;;;;;;;14.00;11.33;;;;;10.73;69.74;101369.34;4971480;28;45530;-72
2021/10/28 06:01:54;;;;;;;;;22.67;16.67;;;;;10.74;69.87;101364.91;4970461;28;45355;-73
2021/10/28 06:04:19;;;;;;;;;19.33;13.00;;;;;10.73;70.09;101364.06;4970751;28;45384;-72
2021/10/28 06:06:44;;;;;;;;;16.67;16.00;;;;;10.73;69.91;101366.69;4978604;28;45504;-71
2021/10/28 06:09:10;;;;;;;;;19.33;16.00;;;;;10.73;69.74;101363.25;4974301;28;45447;-71
2021/10/28 06:11:35;;;;;;;;;16.67;14.33;;;;;10.73;70.04;101366.69;4970406;28;45423;-72
2021/10/28 06:14:00;;;;;;;;;16.33;14.67;;;;;10.73;69.57;101365.88;4968650;28;48990;-72
2021/10/28 06:16:27;;;;;;;;;16.33;14.00;;;;;10.73;69.66;101363.25;4970053;28;47022;-72
2021/10/28 06:18:52;;;;;;;;;10.67;9.67;;;;;10.69;69.92;101357.34;4972411;28;45434;-72
2021/10/28 06:21:23;;;;;;;;;14.00;11.00;;;;;10.72;69.78;101362.38;4968288;28;45659;-71
2021/10/28 06:23:48;;;;;;;;;18.67;15.33;;;;;10.72;69.55;101362.38;4968275;28;45489;-72
2021/10/28 06:26:14;;;;;;;;;17.33;16.00;;;;;10.72;69.30;101358.94;4982425;28;47278;-72
2021/10/28 06:28:39;;;;;;;;;19.00;16.33;;;;;10.72;69.14;101365.00;4969893;28;45455;-72
2021/10/28 06:31:05;;;;;;;;;19.33;16.67;;;;;10.72;69.47;101372.91;4972621;28;45874;-72
2021/10/28 06:33:34;;;;;;;;;18.33;18.00;;;;;10.72;69.25;101375.53;4973895;28;45539;-72
2021/10/28 06:36:02;;;;;;;;;12.67;10.00;;;;;10.73;69.58;101373.75;4972381;28;46360;-72
2021/10/28 06:38:30;;;;;;;;;16.00;16.00;;;;;10.71;69.28;101376.47;4972124;28;45647;-72
2021/10/28 06:40:55;;;;;;;;;22.33;17.33;;;;;10.72;69.21;101377.31;4972943;28;45400;-73
2021/10/28 06:43:21;;;;;;;;;18.00;16.00;;;;;10.70;69.53;101361.66;4973872;28;45443;-71
2021/10/28 06:45:46;;;;;;;;;21.00;16.00;;;;;10.69;69.41;101377.50;4973792;28;45293;-71
2021/10/28 06:48:13;;;;;;;;;16.33;14.33;;;;;10.67;69.40;101369.72;4974101;28;45331;-71
2021/10/28 06:50:59;;;;;;;;;16.00;13.67;;;;;10.67;69.47;101380.22;4972837;28;45470;-72
2021/10/28 06:53:26;;;;;;;;;19.00;14.67;;;;;10.68;69.53;101376.66;4986429;28;45411;-73
2021/10/28 06:56:02;;;;;;;;;20.00;17.00;;;;;10.70;68.98;101389.69;5040569;27;46338;-72
2021/10/28 07:03:56;;;;;;;;;17.67;15.33;;;;;10.71;68.90;101376.47;4974904;28;45512;-73
2021/10/28 07:06:24;;;;;;;;;19.00;16.33;;;;;10.71;69.34;101373.00;4972101;28;45525;-72
2021/10/28 07:08:54;;;;;;;;;21.00;18.67;;;;;10.72;69.36;101378.16;4978131;28;45466;-72
2021/10/28 07:11:33;;;;;;;;;23.00;21.00;;;;;10.73;69.36;101377.22;4978542;28;45441;-73
2021/10/28 07:14:00;;;;;;;;;18.00;16.33;;;;;10.75;69.35;101365.78;4972832;28;45383;-72
2021/10/28 07:19:13;;;;;;;;;21.33;14.67;;;;;10.76;68.72;101368.28;4970138;28;45284;-72
2021/10/28 07:24:31;;;;;;;;;16.33;15.67;;;;;10.79;69.04;101381.22;4972460;28;45437;-73
2021/10/28 07:30:39;;;;;;;;;22.67;19.33;;;;;10.83;69.01;101379.25;5034004;28;45286;-72
2021/10/28 07:32:41;;;;;;;;;24.00;18.00;;;;;10.83;68.35;101379.25;5034131;28;45401;-71
2021/10/28 07:59:35;;;;;;;;;22.33;20.00;;;;;11.04;68.30;101374.34;5037625;28;46050;-70
2021/10/28 08:18:00;;;;;;;;;23.67;21.00;;;;;11.12;68.41;101368.59;5002345;27;45658;-71
2021/10/28 08:23:54;;;;;;;;;28.33;21.33;;;;;11.28;68.09;101361.38;5015446;27;45446;-72
2021/10/28 08:31:06;;;;;;;;;20.33;18.00;;;;;11.54;67.39;101356.97;4993028;28;46055;-72
2021/10/28 08:33:32;;;;;;;;;26.67;23.00;;;;;11.59;67.02;101361.94;4972337;28;45438;-71
2021/10/28 08:36:07;;;;;;;;;27.33;23.33;;;;;11.64;67.34;101354.56;4972083;28;45423;-72
2021/10/28 08:38:37;;;;;;;;;25.67;20.33;;;;;11.67;67.49;101353.53;4984461;28;45429;-71
2021/10/28 08:41:06;;;;;;;;;30.33;22.67;;;;;11.68;67.32;101345.50;4962607;28;45723;-71
2021/10/28 08:43:35;;;;;;;;;17.00;16.00;;;;;11.71;67.40;101345.31;4956607;28;45399;-71
2021/10/28 08:46:01;;;;;;;;;22.67;19.00;;;;;11.77;67.28;101345.84;4970296;28;45416;-71
2021/10/28 08:48:28;;;;;;;;;21.00;19.00;;;;;11.82;66.34;101341.06;4972275;28;45391;-72
2021/10/28 08:55:59;;;;;;;;;22.67;21.00;;;;;11.94;66.12;101334.13;4975218;27;45393;-72
2021/10/28 08:58:59;;;;;;;;;30.33;22.67;;;;;11.98;66.03;101322.47;4987746;28;45529;-71
2021/10/28 09:35:07;;;;;;;;;27.00;21.33;;;;;12.77;65.19;101288.63;4955757;28;45447;-70
2021/10/28 09:46:17;;;;;;;;;17.67;15.00;;;;;13.12;63.48;101279.84;5026369;27;46055;-70
2021/10/28 09:51:21;;;;;;;;;25.33;23.67;;;;;13.24;62.67;101278.06;4971259;28;45558;-71
2021/10/28 09:59:41;;;;;;;;;25.00;21.67;;;;;13.37;62.85;101275.38;4993403;27;45663;-71
2021/10/28 10:02:16;;;;;;;;;33.33;27.33;;;;;13.43;63.16;101272.25;4976814;28;45443;-71
2021/10/28 10:04:44;;;;;;;;;29.67;25.00;;;;;13.55;63.47;101274.91;4971854;28;45564;-71
2021/10/28 10:07:16;;;;;;;;;18.67;16.67;;;;;13.64;62.60;101269.72;4972917;28;46139;-72
2021/10/28 10:09:42;;;;;;;;;19.33;16.33;;;;;13.74;62.64;101258.44;4973824;28;45316;-71
2021/10/28 10:12:08;;;;;;;;;16.67;14.33;;;;;13.81;62.51;101249.09;4977471;28;45426;-71
2021/10/28 10:14:36;;;;;;;;;16.00;12.33;;;;;13.92;61.61;101250.84;4975390;28;45567;-71
2021/10/28 10:17:02;;;;;;;;;17.00;12.33;;;;;13.99;61.77;101242.31;4979815;28;46063;-73
2021/10/28 10:19:31;;;;;;;;;17.33;15.33;;;;;14.07;61.05;101240.88;4973694;28;45328;-70
2021/10/28 10:21:59;;;;;;;;;16.33;13.33;;;;;14.15;61.56;101235.78;4975933;28;45387;-71
2021/10/28 10:24:51;;;;;;;;;17.00;14.67;;;;;14.25;61.40;101230.59;4972605;28;45734;-71
2021/10/28 11:22:42;;;;;;;;;13.67;11.00;;;;;15.65;57.42;101162.34;5012967;28;45335;-70
2021/10/28 13:04:00;;;;;;;;;9.00;7.33;;;;;17.27;51.50;100963.47;4939959;28;45518;-70
2021/10/28 15:28:04;;;;;;;;;4.00;4.00;;;;;18.41;44.67;100836.75;5034651;28;45558;-71
2021/10/28 15:41:39;;;;;;;;;7.00;5.00;;;;;18.23;45.82;100816.44;5012405;28;45532;-73
2021/10/28 16:00:10;;;;;;;;;9.00;8.00;;;;;17.89;46.21;100798.72;4930795;28;45511;-71
2021/10/28 16:21:55;;;;;;;;;7.67;6.33;;;;;17.48;47.32;100766.63;4972932;28;45336;-78
2021/10/28 16:24:31;;;;;;;;;9.00;7.00;;;;;17.44;47.41;100765.28;4971071;28;45563;-78
2021/10/28 16:26:57;;;;;;;;;9.00;6.00;;;;;17.40;47.22;100766.59;4969801;28;45356;-76
2021/10/28 16:29:24;;;;;;;;;8.67;6.33;;;;;17.35;47.61;100763.59;4980030;28;47343;-78
2021/10/28 16:31:50;;;;;;;;;8.33;7.00;;;;;17.29;47.43;100770.34;4973206;28;45530;-77
2021/10/28 16:34:16;;;;;;;;;6.33;6.33;;;;;17.23;47.54;100761.19;4972726;28;45323;-79
2021/10/28 16:36:42;;;;;;;;;8.00;6.67;;;;;17.18;48.28;100754.66;4973920;28;45333;-78
2021/10/28 16:39:11;;;;;;;;;10.67;6.00;;;;;17.14;47.69;100751.53;4971844;28;46661;-76
2021/10/28 16:41:39;;;;;;;;;6.00;4.00;;;;;17.10;48.09;100752.78;4984751;28;45546;-77
2021/10/28 16:44:05;;;;;;;;;10.67;9.00;;;;;17.04;48.04;100756.91;4971459;28;45402;-77
2021/10/28 16:46:30;;;;;;;;;6.67;6.67;;;;;16.98;48.09;100750.41;4971591;28;45364;-76
2021/10/28 16:48:56;;;;;;;;;8.67;7.33;;;;;16.96;48.04;100754.22;4973132;28;45520;-76
2021/10/28 16:51:22;;;;;;;;;4.33;2.00;;;;;16.90;48.63;100750.34;4971385;28;45357;-76
2021/10/28 16:53:47;;;;;;;;;11.33;8.67;;;;;16.87;48.38;100753.28;4971733;28;45401;-77
2021/10/28 16:56:15;;;;;;;;;8.33;8.33;;;;;16.82;48.83;100745.78;4971741;28;45469;-78
2021/10/28 16:58:42;;;;;;;;;11.33;11.00;;;;;16.79;48.62;100745.28;4968599;28;47073;-76
2021/10/28 17:01:09;;;;;;;;;10.00;7.33;;;;;16.73;49.80;100737.94;4971607;28;45299;-75
2021/10/28 17:03:35;;;;;;;;;12.67;10.00;;;;;16.67;49.14;100734.91;4973492;28;45347;-77
2021/10/28 17:06:00;;;;;;;;;8.00;8.00;;;;;16.67;49.23;100740.22;4970060;28;45495;-76
2021/10/28 17:08:26;;;;;;;;;10.67;7.33;;;;;16.63;49.39;100738.00;4971244;28;45491;-77
2021/10/28 17:10:52;;;;;;;;;13.00;8.67;;;;;16.58;49.41;100740.28;4968397;28;45456;-79
2021/10/28 17:13:17;;;;;;;;;11.00;9.00;;;;;16.49;49.80;100734.91;5001164;28;45438;-77
2021/10/28 17:15:42;;;;;;;;;12.00;7.00;;;;;16.49;49.73;100742.88;4972000;28;45408;-75
2021/10/28 17:18:08;;;;;;;;;8.00;6.67;;;;;16.44;50.01;100733.72;4970096;28;45929;-78
2021/10/28 17:20:35;;;;;;;;;8.67;7.67;;;;;16.41;50.03;100737.50;4971244;28;49573;-76
2021/10/28 17:23:01;;;;;;;;;7.33;7.33;;;;;16.37;50.10;100741.44;4971512;27;45297;-77
2021/10/28 17:25:28;;;;;;;;;9.00;8.00;;;;;16.34;50.72;100742.56;4970861;28;45413;-76
2021/10/28 17:27:54;;;;;;;;;9.33;9.00;;;;;16.31;50.53;100742.88;4972617;28;46625;-77
2021/10/28 17:30:20;;;;;;;;;10.67;9.33;;;;;16.31;50.54;100739.41;4971061;28;45523;-78
2021/10/28 17:32:46;;;;;;;;;14.33;11.00;;;;;16.26;50.68;100747.78;4971194;28;45361;-79
2021/10/28 17:35:13;;;;;;;;;13.00;10.00;;;;;16.22;50.76;100741.13;4970704;28;45458;-77
2021/10/28 17:37:39;;;;;;;;;13.00;10.00;;;;;16.20;51.39;100742.25;4970929;28;47303;-78
2021/10/28 17:40:05;;;;;;;;;13.67;10.33;;;;;16.19;51.33;100745.88;4978044;28;45094;-80
2021/10/28 17:42:32;;;;;;;;;11.33;9.00;;;;;16.16;51.41;100736.44;4984752;28;45516;-75
2021/10/28 17:44:57;;;;;;;;;13.67;12.00;;;;;16.15;51.46;100740.91;4973413;28;45175;-78
2021/10/28 17:47:24;;;;;;;;;9.00;9.00;;;;;16.13;51.42;100739.38;4971059;28;45408;-77
2021/10/28 17:49:51;;;;;;;;;7.67;6.67;;;;;16.11;51.68;100738.69;4970038;28;45471;-77
2021/10/28 17:52:18;;;;;;;;;12.67;12.00;;;;;16.08;51.67;100729.22;4971187;28;45548;-77
2021/10/28 17:54:46;;;;;;;;;12.00;10.00;;;;;16.09;51.46;100735.38;4970582;28;45429;-78
2021/10/28 17:57:13;;;;;;;;;16.33;14.67;;;;;16.06;51.89;100735.66;4969281;28;46201;-78
2021/10/28 17:59:41;;;;;;;;;13.67;13.67;;;;;16.05;52.23;100739.28;4968844;28;45386;-76
2021/10/28 18:02:07;;;;;;;;;12.00;10.33;;;;;16.02;52.03;100731.66;4978954;28;45463;-79
2021/10/28 18:04:33;;;;;;;;;14.33;9.00;;;;;16.02;51.92;100737.75;4972354;28;45344;-78
2021/10/28 18:06:59;;;;;;;;;10.00;8.00;;;;;15.97;52.08;100724.97;4985077;28;46966;-80
2021/10/28 18:09:26;;;;;;;;;8.67;8.67;;;;;15.96;52.09;100730.44;4972570;28;45438;-77
2021/10/28 18:11:53;;;;;;;;;9.00;8.00;;;;;15.96;52.20;100731.25;4971924;28;45481;-77
2021/10/28 18:14:18;;;;;;;;;15.00;11.67;;;;;15.94;52.10;100727.09;4969884;28;45391;-79
2021/10/28 18:16:44;;;;;;;;;13.00;13.00;;;;;15.90;52.47;100725.72;4970871;28;46885;-77
2021/10/28 18:19:10;;;;;;;;;9.33;9.33;;;;;15.86;52.62;100727.84;4972908;28;45368;-78
2021/10/28 18:21:41;;;;;;;;;11.00;9.00;;;;;15.82;52.66;100715.88;4980054;28;45355;-77
2021/10/28 18:24:06;;;;;;;;;12.33;11.33;;;;;15.82;52.69;100723.81;4968988;28;45550;-77
2021/10/28 18:26:32;;;;;;;;;10.00;10.00;;;;;15.81;52.98;100728.28;4970945;28;46067;-79
2021/10/28 18:28:58;;;;;;;;;9.00;8.00;;;;;15.80;52.98;100725.75;4973387;28;45241;-78
2021/10/28 18:31:27;;;;;;;;;13.33;11.67;;;;;15.78;53.04;100727.72;4975236;28;45542;-77
2021/10/28 18:33:52;;;;;;;;;11.00;8.00;;;;;15.75;52.76;100726.19;4975887;28;45347;-78
2021/10/28 18:36:18;;;;;;;;;11.00;10.67;;;;;15.75;53.18;100720.06;4972261;28;46468;-79
2021/10/28 18:38:45;;;;;;;;;12.33;10.00;;;;;15.73;52.96;100719.38;4970058;28;45474;-78
2021/10/28 18:41:16;;;;;;;;;13.67;11.00;;;;;15.70;53.30;100723.16;4972806;28;45454;-77
2021/10/28 18:43:42;;;;;;;;;16.00;11.67;;;;;15.66;53.28;100722.63;4973117;28;45435;-77
2021/10/28 18:46:08;;;;;;;;;13.67;10.33;;;;;15.64;53.09;100721.91;4975101;28;47258;-76
2021/10/28 18:48:34;;;;;;;;;11.67;11.67;;;;;15.59;53.51;100718.88;4974391;28;45338;-76
2021/10/28 18:51:00;;;;;;;;;16.33;13.00;;;;;15.58;53.21;100714.59;4973284;28;45573;-77
2021/10/28 18:53:26;;;;;;;;;17.00;16.00;;;;;15.48;53.57;100705.84;4979172;28;45371;-78
2021/10/28 18:55:52;;;;;;;;;23.67;17.00;;;;;15.51;53.52;100713.50;4979338;28;45543;-79
2021/10/28 18:58:19;;;;;;;;;13.00;12.67;;;;;15.48;53.88;100708.50;4979997;28;45591;-78
2021/10/28 19:00:45;;;;;;;;;15.67;13.00;;;;;15.48;53.89;100711.16;4975909;28;45752;-77
2021/10/28 19:03:10;;;;;;;;;13.67;12.67;;;;;15.44;53.83;100697.38;4979016;28;45589;-79
2021/10/28 19:05:36;;;;;;;;;18.67;15.00;;;;;15.43;53.79;100703.63;4988039;28;47311;-78
2021/10/28 19:08:01;;;;;;;;;17.67;14.67;;;;;15.41;54.02;100704.75;4972807;28;45375;-80
2021/10/28 19:10:27;;;;;;;;;25.67;20.67;;;;;15.37;53.96;100698.09;4973099;28;45543;-78
2021/10/28 19:12:52;;;;;;;;;16.00;14.33;;;;;15.31;54.26;100694.22;4975057;28;45255;-79
2021/10/28 19:15:18;;;;;;;;;18.67;13.67;;;;;15.26;54.63;100693.84;4972443;28;46929;-78
2021/10/28 19:17:50;;;;;;;;;15.00;12.00;;;;;15.16;54.56;100680.63;4971098;28;45424;-78
2021/10/28 19:20:16;;;;;;;;;16.00;12.33;;;;;15.15;55.08;100689.53;4973080;28;45488;-77
2021/10/28 19:22:41;;;;;;;;;18.67;16.33;;;;;15.12;54.70;100695.13;4972816;28;45446;-76
2021/10/28 19:25:08;;;;;;;;;17.00;14.67;;;;;15.08;54.90;100683.16;4973775;28;46312;-75
2021/10/28 19:27:35;;;;;;;;;16.33;13.33;;;;;15.02;55.28;100685.41;4973983;28;45506;-72
2021/10/28 19:32:58;;;;;;;;;17.00;14.00;;;;;14.96;55.46;100685.16;5047098;28;45417;-73
2021/10/28 19:35:26;;;;;;;;;13.67;11.33;;;;;14.90;55.51;100678.63;5040898;28;46179;-71
2021/10/28 19:37:59;;;;;;;;;12.33;12.00;;;;;14.87;55.75;100680.69;5041794;28;45390;-73
2021/10/28 19:48:18;;;;;;;;;14.00;13.67;;;;;14.71;56.24;100665.44;5043115;28;45468;-75
2021/10/28 19:50:48;;;;;;;;;15.00;12.67;;;;;14.64;56.19;100660.72;5043074;28;45345;-75
2021/10/28 19:53:14;;;;;;;;;15.67;14.00;;;;;14.62;56.38;100665.28;5021221;28;45511;-76
2021/10/28 19:55:41;;;;;;;;;17.00;13.67;;;;;14.58;56.77;100663.91;5032252;28;46444;-75
2021/10/28 19:58:10;;;;;;;;;14.00;11.67;;;;;14.55;56.69;100666.00;5037134;28;45353;-75
2021/10/28 20:00:41;;;;;;;;;11.00;9.00;;;;;14.51;56.65;100662.81;5037796;28;45536;-76
2021/10/28 20:08:15;;;;;;;;;9.33;9.00;;;;;14.43;56.86;100663.50;5036752;28;45285;-76
2021/10/28 20:21:32;;;;;;;;;13.67;13.00;;;;;14.30;57.91;100658.50;4970815;28;45391;-76